Gunnison Bend Reservoir




Date Hourly Average Reservoir Capacity (AF) Canal Flow (cfs) Battery Voltage (V) Reservoir Height (ft) Gate Height 1 (ft) Gate Height 2 (ft)
05/01/2017 2,992 104.60 13.45 10.35 2.01 0.31
05/02/2017 2,967 140.50 13.38 10.31 2.43 1.26
05/03/2017 2,924 157.70 13.41 10.24 2.47 2.39
05/04/2017 2,839 168.30 13.44 10.10 2.78 2.68
05/05/2017 2,839 175.80 13.38 10.10 3.31 2.10
05/06/2017 2,833 174.50 13.37 10.09 3.31 2.10
05/07/2017 2,723 172.10 13.41 9.90 3.31 2.08
05/08/2017 2,717 168.60 13.38 9.89 3.31 1.70
05/09/2017 2,745 165.90 13.36 9.94 3.31 1.43
05/10/2017 2,796 157.50 13.41 10.03 3.31 0.76
05/11/2017 2,802 147.40 13.36 10.04 3.00 1.08
05/12/2017 2,756 137.10 13.38 9.96 2.90 0.78
05/13/2017 2,701 140.60 13.41 9.86 2.90 1.06
05/14/2017 2,712 140.70 13.51 9.88 2.91 1.06
05/15/2017 2,728 140.00 13.44 9.91 2.90 0.99
05/16/2017 2,807 139.90 13.48 10.00 2.90 0.94
05/17/2017 2,827 136.70 13.43 10.08 2.66 0.89
05/18/2017 2,931 102.50 13.44 10.25 1.29 0.89
05/19/2017 2,979 75.14 13.45 10.33 0.60 0.89
05/20/2017 3,040 46.77 13.41 10.43 0.07 0.79
05/21/2017 3,034 39.00 13.46 10.42 0.02 0.68
05/22/2017 3,046 41.45 13.46 10.44 0.02 0.75
05/23/2017 3,046 55.59 13.38 10.44 0.02 1.01
05/24/2017 2,949 71.03 13.35 10.28 0.02 1.31
05/25/2017 2,870 71.02 13.31 10.15 0.02 1.32
05/26/2017 2,845 79.98 13.38 10.11 0.02 1.52
05/27/2017 2,796 85.20 13.41 10.03 0.02 1.63
05/28/2017 2,827 89.00 13.45 10.08 0.02 1.73
05/29/2017 2,809 99.60 13.42 10.05 0.02 2.02
05/30/2017 2,839 112.30 13.39 10.10 0.02 2.41
05/31/2017 2,876 122.50 13.35 10.16 0.02 2.72
Average 118.03
Maximum 175.80
Minimum 39.00
Total Volume (AF) 7,255.76